sensor_id;sensor_type;location;lat;lon;timestamp;P1;durP1;ratioP1;P2;durP2;ratioP2
39044;SDS011;52192;52.002;5.956;2022-12-07T00:01:16;2.22;;;1.58;;
39044;SDS011;52192;52.002;5.956;2022-12-07T00:03:45;2.88;;;2.20;;
39044;SDS011;52192;52.002;5.956;2022-12-07T00:06:12;1.75;;;1.65;;
39044;SDS011;52192;52.002;5.956;2022-12-07T00:08:38;1.80;;;1.23;;
39044;SDS011;52192;52.002;5.956;2022-12-07T00:11:08;2.10;;;1.50;;
39044;SDS011;52192;52.002;5.956;2022-12-07T00:13:37;2.25;;;1.13;;
39044;SDS011;52192;52.002;5.956;2022-12-07T00:16:08;3.72;;;1.67;;
39044;SDS011;52192;52.002;5.956;2022-12-07T00:18:37;2.83;;;1.40;;
39044;SDS011;52192;52.002;5.956;2022-12-07T00:21:07;3.33;;;1.77;;
39044;SDS011;52192;52.002;5.956;2022-12-07T00:23:37;1.15;;;0.85;;
39044;SDS011;52192;52.002;5.956;2022-12-07T00:26:13;1.33;;;0.88;;
39044;SDS011;52192;52.002;5.956;2022-12-07T00:28:47;2.70;;;1.33;;
39044;SDS011;52192;52.002;5.956;2022-12-07T00:31:15;5.38;;;2.30;;
39044;SDS011;52192;52.002;5.956;2022-12-07T00:33:42;1.50;;;1.25;;
39044;SDS011;52192;52.002;5.956;2022-12-07T00:36:09;1.35;;;1.17;;
39044;SDS011;52192;52.002;5.956;2022-12-07T00:38:37;3.03;;;1.65;;
39044;SDS011;52192;52.002;5.956;2022-12-07T00:41:10;2.05;;;1.33;;
39044;SDS011;52192;52.002;5.956;2022-12-07T00:43:38;5.05;;;1.85;;
39044;SDS011;52192;52.002;5.956;2022-12-07T00:46:04;1.73;;;1.63;;
39044;SDS011;52192;52.002;5.956;2022-12-07T00:48:30;2.33;;;1.27;;
39044;SDS011;52192;52.002;5.956;2022-12-07T00:50:56;4.50;;;1.60;;
39044;SDS011;52192;52.002;5.956;2022-12-07T00:53:22;1.95;;;1.63;;
39044;SDS011;52192;52.002;5.956;2022-12-07T00:55:48;2.05;;;1.45;;
39044;SDS011;52192;52.002;5.956;2022-12-07T00:58:14;1.77;;;1.38;;
39044;SDS011;52192;52.002;5.956;2022-12-07T01:00:40;2.35;;;1.50;;
39044;SDS011;52192;52.002;5.956;2022-12-07T01:03:07;2.25;;;1.60;;
39044;SDS011;52192;52.002;5.956;2022-12-07T01:05:34;1.35;;;1.10;;
39044;SDS011;52192;52.002;5.956;2022-12-07T01:08:00;1.98;;;1.35;;
39044;SDS011;52192;52.002;5.956;2022-12-07T01:10:26;1.45;;;1.30;;
39044;SDS011;52192;52.002;5.956;2022-12-07T01:12:52;2.55;;;1.45;;
39044;SDS011;52192;52.002;5.956;2022-12-07T01:15:18;1.55;;;1.20;;
39044;SDS011;52192;52.002;5.956;2022-12-07T01:17:44;4.38;;;1.70;;
39044;SDS011;52192;52.002;5.956;2022-12-07T01:20:10;2.25;;;1.33;;
39044;SDS011;52192;52.002;5.956;2022-12-07T01:22:37;2.47;;;1.48;;
39044;SDS011;52192;52.002;5.956;2022-12-07T01:25:04;2.08;;;1.65;;
39044;SDS011;52192;52.002;5.956;2022-12-07T01:27:30;1.70;;;1.45;;
39044;SDS011;52192;52.002;5.956;2022-12-07T01:29:57;1.70;;;1.15;;
39044;SDS011;52192;52.002;5.956;2022-12-07T01:32:22;4.07;;;1.75;;
39044;SDS011;52192;52.002;5.956;2022-12-07T01:34:48;4.85;;;1.48;;
39044;SDS011;52192;52.002;5.956;2022-12-07T01:37:14;2.90;;;2.00;;
39044;SDS011;52192;52.002;5.956;2022-12-07T01:39:39;2.92;;;1.38;;
39044;SDS011;52192;52.002;5.956;2022-12-07T01:42:09;2.30;;;1.83;;
39044;SDS011;52192;52.002;5.956;2022-12-07T01:47:41;2.13;;;1.52;;
39044;SDS011;52192;52.002;5.956;2022-12-07T01:50:08;1.30;;;1.20;;
39044;SDS011;52192;52.002;5.956;2022-12-07T01:52:34;3.28;;;2.00;;
39044;SDS011;52192;52.002;5.956;2022-12-07T01:55:03;1.63;;;1.50;;
39044;SDS011;52192;52.002;5.956;2022-12-07T01:57:32;2.13;;;1.60;;
39044;SDS011;52192;52.002;5.956;2022-12-07T02:00:00;2.47;;;1.48;;
39044;SDS011;52192;52.002;5.956;2022-12-07T02:02:30;1.48;;;1.20;;
39044;SDS011;52192;52.002;5.956;2022-12-07T02:04:59;1.92;;;1.52;;
39044;SDS011;52192;52.002;5.956;2022-12-07T02:07:28;2.90;;;1.88;;
39044;SDS011;52192;52.002;5.956;2022-12-07T02:09:55;1.98;;;1.20;;
39044;SDS011;52192;52.002;5.956;2022-12-07T02:12:20;2.00;;;1.60;;
39044;SDS011;52192;52.002;5.956;2022-12-07T02:14:48;5.10;;;1.70;;
39044;SDS011;52192;52.002;5.956;2022-12-07T02:17:28;3.08;;;1.48;;
39044;SDS011;52192;52.002;5.956;2022-12-07T02:29:02;1.77;;;1.40;;
39044;SDS011;52192;52.002;5.956;2022-12-07T02:31:50;2.78;;;1.70;;
39044;SDS011;52192;52.002;5.956;2022-12-07T02:34:24;1.13;;;1.02;;
39044;SDS011;52192;52.002;5.956;2022-12-07T02:36:55;2.53;;;1.52;;
39044;SDS011;52192;52.002;5.956;2022-12-07T02:39:31;1.73;;;1.27;;
39044;SDS011;52192;52.002;5.956;2022-12-07T02:42:09;1.65;;;1.55;;
39044;SDS011;52192;52.002;5.956;2022-12-07T02:44:41;1.83;;;1.55;;
39044;SDS011;52192;52.002;5.956;2022-12-07T02:47:09;2.55;;;1.55;;
39044;SDS011;52192;52.002;5.956;2022-12-07T02:49:38;1.40;;;1.30;;
39044;SDS011;52192;52.002;5.956;2022-12-07T02:52:05;8.05;;;1.25;;
39044;SDS011;52192;52.002;5.956;2022-12-07T02:54:31;1.77;;;1.25;;
39044;SDS011;52192;52.002;5.956;2022-12-07T02:57:10;2.38;;;1.15;;
39044;SDS011;52192;52.002;5.956;2022-12-07T03:08:14;1.98;;;1.25;;
39044;SDS011;52192;52.002;5.956;2022-12-07T03:11:00;2.55;;;1.42;;
39044;SDS011;52192;52.002;5.956;2022-12-07T03:21:19;3.03;;;1.48;;
39044;SDS011;52192;52.002;5.956;2022-12-07T03:23:49;2.88;;;1.52;;
39044;SDS011;52192;52.002;5.956;2022-12-07T03:26:19;2.73;;;1.57;;
39044;SDS011;52192;52.002;5.956;2022-12-07T03:28:51;1.50;;;1.02;;
39044;SDS011;52192;52.002;5.956;2022-12-07T03:31:22;1.25;;;1.17;;
39044;SDS011;52192;52.002;5.956;2022-12-07T03:33:59;2.35;;;1.55;;
39044;SDS011;52192;52.002;5.956;2022-12-07T03:36:37;1.92;;;1.08;;
39044;SDS011;52192;52.002;5.956;2022-12-07T03:39:21;1.10;;;0.85;;
39044;SDS011;52192;52.002;5.956;2022-12-07T03:42:08;1.23;;;1.13;;
39044;SDS011;52192;52.002;5.956;2022-12-07T03:44:36;1.77;;;1.00;;
39044;SDS011;52192;52.002;5.956;2022-12-07T03:47:07;2.58;;;1.30;;
39044;SDS011;52192;52.002;5.956;2022-12-07T03:52:40;1.92;;;1.05;;
39044;SDS011;52192;52.002;5.956;2022-12-07T03:57:48;1.05;;;0.90;;
39044;SDS011;52192;52.002;5.956;2022-12-07T04:00:16;1.10;;;0.90;;
39044;SDS011;52192;52.002;5.956;2022-12-07T04:02:43;3.17;;;1.73;;
39044;SDS011;52192;52.002;5.956;2022-12-07T04:05:09;1.10;;;1.05;;
39044;SDS011;52192;52.002;5.956;2022-12-07T04:07:35;1.77;;;1.30;;
39044;SDS011;52192;52.002;5.956;2022-12-07T04:10:00;3.38;;;1.33;;
39044;SDS011;52192;52.002;5.956;2022-12-07T04:12:26;2.13;;;1.45;;
39044;SDS011;52192;52.002;5.956;2022-12-07T04:14:52;0.63;;;0.50;;
39044;SDS011;52192;52.002;5.956;2022-12-07T04:17:18;1.10;;;0.95;;
39044;SDS011;52192;52.002;5.956;2022-12-07T04:19:43;1.02;;;0.70;;
39044;SDS011;52192;52.002;5.956;2022-12-07T04:22:09;1.05;;;0.88;;
39044;SDS011;52192;52.002;5.956;2022-12-07T04:24:35;1.65;;;0.88;;
39044;SDS011;52192;52.002;5.956;2022-12-07T04:27:01;0.98;;;0.85;;
39044;SDS011;52192;52.002;5.956;2022-12-07T04:29:26;0.95;;;0.70;;
39044;SDS011;52192;52.002;5.956;2022-12-07T04:31:52;0.70;;;0.68;;
39044;SDS011;52192;52.002;5.956;2022-12-07T04:34:18;0.50;;;0.50;;
39044;SDS011;52192;52.002;5.956;2022-12-07T04:36:46;3.28;;;0.93;;
39044;SDS011;52192;52.002;5.956;2022-12-07T04:39:22;1.83;;;0.85;;
39044;SDS011;52192;52.002;5.956;2022-12-07T04:41:49;1.35;;;0.82;;
39044;SDS011;52192;52.002;5.956;2022-12-07T04:44:15;1.00;;;0.90;;
39044;SDS011;52192;52.002;5.956;2022-12-07T04:46:42;1.88;;;0.68;;
39044;SDS011;52192;52.002;5.956;2022-12-07T04:49:09;2.15;;;1.13;;
39044;SDS011;52192;52.002;5.956;2022-12-07T04:51:35;0.75;;;0.60;;
39044;SDS011;52192;52.002;5.956;2022-12-07T04:54:01;2.45;;;0.95;;
39044;SDS011;52192;52.002;5.956;2022-12-07T04:56:27;1.60;;;0.85;;
39044;SDS011;52192;52.002;5.956;2022-12-07T04:58:53;2.05;;;0.95;;
39044;SDS011;52192;52.002;5.956;2022-12-07T05:01:20;1.17;;;0.68;;
39044;SDS011;52192;52.002;5.956;2022-12-07T05:03:46;4.50;;;0.82;;
39044;SDS011;52192;52.002;5.956;2022-12-07T05:06:12;1.92;;;0.93;;
39044;SDS011;52192;52.002;5.956;2022-12-07T05:08:38;1.38;;;0.90;;
39044;SDS011;52192;52.002;5.956;2022-12-07T05:11:05;2.30;;;1.00;;
39044;SDS011;52192;52.002;5.956;2022-12-07T05:13:32;2.83;;;0.85;;
39044;SDS011;52192;52.002;5.956;2022-12-07T05:15:58;0.98;;;0.40;;
39044;SDS011;52192;52.002;5.956;2022-12-07T05:18:24;4.45;;;0.85;;
39044;SDS011;52192;52.002;5.956;2022-12-07T05:20:50;7.22;;;0.85;;
39044;SDS011;52192;52.002;5.956;2022-12-07T05:23:16;0.75;;;0.65;;
39044;SDS011;52192;52.002;5.956;2022-12-07T05:25:42;0.73;;;0.57;;
39044;SDS011;52192;52.002;5.956;2022-12-07T05:28:09;0.88;;;0.52;;
39044;SDS011;52192;52.002;5.956;2022-12-07T05:30:35;1.27;;;0.90;;
39044;SDS011;52192;52.002;5.956;2022-12-07T05:33:00;4.45;;;1.05;;
39044;SDS011;52192;52.002;5.956;2022-12-07T05:35:27;0.47;;;0.47;;
39044;SDS011;52192;52.002;5.956;2022-12-07T05:37:54;0.82;;;0.68;;
39044;SDS011;52192;52.002;5.956;2022-12-07T05:40:21;0.63;;;0.60;;
39044;SDS011;52192;52.002;5.956;2022-12-07T05:42:46;0.50;;;0.50;;
39044;SDS011;52192;52.002;5.956;2022-12-07T05:45:12;0.95;;;0.70;;
39044;SDS011;52192;52.002;5.956;2022-12-07T05:47:38;0.52;;;0.50;;
39044;SDS011;52192;52.002;5.956;2022-12-07T05:50:04;1.80;;;1.02;;
39044;SDS011;52192;52.002;5.956;2022-12-07T05:52:31;1.05;;;0.75;;
39044;SDS011;52192;52.002;5.956;2022-12-07T05:54:56;0.70;;;0.70;;
39044;SDS011;52192;52.002;5.956;2022-12-07T05:57:22;2.28;;;1.00;;
39044;SDS011;52192;52.002;5.956;2022-12-07T05:59:48;1.27;;;0.95;;
39044;SDS011;52192;52.002;5.956;2022-12-07T06:02:14;0.50;;;0.50;;
39044;SDS011;52192;52.002;5.956;2022-12-07T06:04:42;1.48;;;0.85;;
39044;SDS011;52192;52.002;5.956;2022-12-07T06:07:09;0.68;;;0.63;;
39044;SDS011;52192;52.002;5.956;2022-12-07T06:09:37;2.22;;;0.80;;
39044;SDS011;52192;52.002;5.956;2022-12-07T06:12:03;1.80;;;1.10;;
39044;SDS011;52192;52.002;5.956;2022-12-07T06:14:48;2.83;;;1.00;;
39044;SDS011;52192;52.002;5.956;2022-12-07T06:17:14;1.73;;;0.70;;
39044;SDS011;52192;52.002;5.956;2022-12-07T06:19:40;2.22;;;0.85;;
39044;SDS011;52192;52.002;5.956;2022-12-07T06:22:06;1.00;;;0.70;;
39044;SDS011;52192;52.002;5.956;2022-12-07T06:24:34;0.45;;;0.40;;
39044;SDS011;52192;52.002;5.956;2022-12-07T06:27:00;1.38;;;1.00;;
39044;SDS011;52192;52.002;5.956;2022-12-07T06:29:26;0.50;;;0.50;;
39044;SDS011;52192;52.002;5.956;2022-12-07T06:31:51;0.75;;;0.75;;
39044;SDS011;52192;52.002;5.956;2022-12-07T06:34:18;0.50;;;0.50;;
39044;SDS011;52192;52.002;5.956;2022-12-07T06:36:45;0.88;;;0.80;;
39044;SDS011;52192;52.002;5.956;2022-12-07T06:39:16;1.35;;;0.77;;
39044;SDS011;52192;52.002;5.956;2022-12-07T06:41:46;2.13;;;0.77;;
39044;SDS011;52192;52.002;5.956;2022-12-07T06:44:12;1.65;;;0.90;;
39044;SDS011;52192;52.002;5.956;2022-12-07T06:46:38;1.70;;;0.82;;
39044;SDS011;52192;52.002;5.956;2022-12-07T06:49:04;0.77;;;0.70;;
39044;SDS011;52192;52.002;5.956;2022-12-07T06:51:30;1.98;;;0.98;;
39044;SDS011;52192;52.002;5.956;2022-12-07T06:53:57;0.82;;;0.65;;
39044;SDS011;52192;52.002;5.956;2022-12-07T06:56:22;2.55;;;0.40;;
39044;SDS011;52192;52.002;5.956;2022-12-07T06:58:48;0.68;;;0.52;;
39044;SDS011;52192;52.002;5.956;2022-12-07T07:01:15;6.18;;;1.02;;
39044;SDS011;52192;52.002;5.956;2022-12-07T07:03:43;2.28;;;1.13;;
39044;SDS011;52192;52.002;5.956;2022-12-07T07:06:10;0.80;;;0.80;;
39044;SDS011;52192;52.002;5.956;2022-12-07T07:08:37;0.73;;;0.52;;
39044;SDS011;52192;52.002;5.956;2022-12-07T07:11:03;0.70;;;0.70;;
39044;SDS011;52192;52.002;5.956;2022-12-07T07:13:29;4.13;;;0.95;;
39044;SDS011;52192;52.002;5.956;2022-12-07T07:15:55;0.63;;;0.55;;
39044;SDS011;52192;52.002;5.956;2022-12-07T07:18:21;1.58;;;0.30;;
39044;SDS011;52192;52.002;5.956;2022-12-07T07:20:47;1.60;;;1.10;;
39044;SDS011;52192;52.002;5.956;2022-12-07T07:23:13;2.13;;;0.80;;
39044;SDS011;52192;52.002;5.956;2022-12-07T07:25:38;3.30;;;0.70;;
39044;SDS011;52192;52.002;5.956;2022-12-07T07:28:04;6.15;;;0.75;;
39044;SDS011;52192;52.002;5.956;2022-12-07T07:30:30;5.30;;;0.90;;
39044;SDS011;52192;52.002;5.956;2022-12-07T07:32:59;1.60;;;0.95;;
39044;SDS011;52192;52.002;5.956;2022-12-07T07:35:26;0.57;;;0.38;;
39044;SDS011;52192;52.002;5.956;2022-12-07T07:37:53;0.65;;;0.65;;
39044;SDS011;52192;52.002;5.956;2022-12-07T07:40:19;0.40;;;0.40;;
39044;SDS011;52192;52.002;5.956;2022-12-07T07:42:52;1.17;;;0.73;;
39044;SDS011;52192;52.002;5.956;2022-12-07T07:45:18;0.95;;;0.50;;
39044;SDS011;52192;52.002;5.956;2022-12-07T07:47:46;0.55;;;0.55;;
39044;SDS011;52192;52.002;5.956;2022-12-07T07:50:11;3.03;;;0.50;;
39044;SDS011;52192;52.002;5.956;2022-12-07T07:52:37;0.50;;;0.38;;
39044;SDS011;52192;52.002;5.956;2022-12-07T07:55:03;0.77;;;0.60;;
39044;SDS011;52192;52.002;5.956;2022-12-07T07:57:30;1.70;;;0.65;;
39044;SDS011;52192;52.002;5.956;2022-12-07T07:59:55;1.20;;;1.10;;
39044;SDS011;52192;52.002;5.956;2022-12-07T08:02:21;0.52;;;0.47;;
39044;SDS011;52192;52.002;5.956;2022-12-07T08:04:48;3.92;;;0.68;;
39044;SDS011;52192;52.002;5.956;2022-12-07T08:07:14;1.50;;;1.00;;
39044;SDS011;52192;52.002;5.956;2022-12-07T08:09:40;0.82;;;0.77;;
39044;SDS011;52192;52.002;5.956;2022-12-07T08:12:06;0.73;;;0.70;;
39044;SDS011;52192;52.002;5.956;2022-12-07T08:14:32;2.50;;;0.68;;
39044;SDS011;52192;52.002;5.956;2022-12-07T08:16:59;0.40;;;0.40;;
39044;SDS011;52192;52.002;5.956;2022-12-07T08:19:25;1.13;;;0.80;;
39044;SDS011;52192;52.002;5.956;2022-12-07T08:21:51;0.68;;;0.68;;
39044;SDS011;52192;52.002;5.956;2022-12-07T08:24:16;1.27;;;0.47;;
39044;SDS011;52192;52.002;5.956;2022-12-07T08:26:43;0.50;;;0.50;;
39044;SDS011;52192;52.002;5.956;2022-12-07T08:29:09;0.85;;;0.65;;
39044;SDS011;52192;52.002;5.956;2022-12-07T08:31:34;2.60;;;1.08;;
39044;SDS011;52192;52.002;5.956;2022-12-07T08:34:00;1.73;;;0.82;;
39044;SDS011;52192;52.002;5.956;2022-12-07T08:36:26;1.33;;;0.95;;
39044;SDS011;52192;52.002;5.956;2022-12-07T08:38:52;0.40;;;0.40;;
39044;SDS011;52192;52.002;5.956;2022-12-07T08:41:18;0.75;;;0.60;;
39044;SDS011;52192;52.002;5.956;2022-12-07T08:43:43;3.88;;;1.83;;
39044;SDS011;52192;52.002;5.956;2022-12-07T08:46:10;1.95;;;0.75;;
39044;SDS011;52192;52.002;5.956;2022-12-07T08:48:58;0.93;;;0.80;;
39044;SDS011;52192;52.002;5.956;2022-12-07T08:51:30;2.17;;;0.70;;
39044;SDS011;52192;52.002;5.956;2022-12-07T08:53:57;2.20;;;0.98;;
39044;SDS011;52192;52.002;5.956;2022-12-07T08:56:25;1.42;;;0.70;;
39044;SDS011;52192;52.002;5.956;2022-12-07T08:58:52;1.15;;;0.63;;
39044;SDS011;52192;52.002;5.956;2022-12-07T09:01:18;1.02;;;0.50;;
39044;SDS011;52192;52.002;5.956;2022-12-07T09:03:43;1.75;;;0.90;;
39044;SDS011;52192;52.002;5.956;2022-12-07T09:06:09;2.70;;;0.60;;
39044;SDS011;52192;52.002;5.956;2022-12-07T09:08:36;0.60;;;0.60;;
39044;SDS011;52192;52.002;5.956;2022-12-07T09:11:06;2.20;;;1.00;;
39044;SDS011;52192;52.002;5.956;2022-12-07T09:13:31;1.73;;;0.77;;
39044;SDS011;52192;52.002;5.956;2022-12-07T09:15:57;2.85;;;0.73;;
39044;SDS011;52192;52.002;5.956;2022-12-07T09:18:23;0.82;;;0.40;;
39044;SDS011;52192;52.002;5.956;2022-12-07T09:20:49;2.45;;;0.40;;
39044;SDS011;52192;52.002;5.956;2022-12-07T09:23:15;0.98;;;0.77;;
39044;SDS011;52192;52.002;5.956;2022-12-07T09:25:41;1.90;;;1.02;;
39044;SDS011;52192;52.002;5.956;2022-12-07T09:28:07;1.13;;;0.65;;
39044;SDS011;52192;52.002;5.956;2022-12-07T09:30:33;1.25;;;0.80;;
39044;SDS011;52192;52.002;5.956;2022-12-07T09:32:59;2.03;;;0.95;;
39044;SDS011;52192;52.002;5.956;2022-12-07T09:35:25;0.50;;;0.50;;
39044;SDS011;52192;52.002;5.956;2022-12-07T09:37:51;1.30;;;0.77;;
39044;SDS011;52192;52.002;5.956;2022-12-07T09:40:18;1.00;;;0.68;;
39044;SDS011;52192;52.002;5.956;2022-12-07T09:42:47;1.67;;;0.90;;
39044;SDS011;52192;52.002;5.956;2022-12-07T09:45:34;1.45;;;0.80;;
39044;SDS011;52192;52.002;5.956;2022-12-07T09:48:04;1.05;;;0.70;;
39044;SDS011;52192;52.002;5.956;2022-12-07T09:50:31;1.70;;;0.93;;
39044;SDS011;52192;52.002;5.956;2022-12-07T09:53:08;1.20;;;0.50;;
39044;SDS011;52192;52.002;5.956;2022-12-07T09:55:40;1.77;;;0.75;;
39044;SDS011;52192;52.002;5.956;2022-12-07T09:58:11;1.80;;;0.55;;
39044;SDS011;52192;52.002;5.956;2022-12-07T10:00:45;1.30;;;0.57;;
39044;SDS011;52192;52.002;5.956;2022-12-07T10:03:11;1.80;;;0.52;;
39044;SDS011;52192;52.002;5.956;2022-12-07T10:05:41;1.17;;;0.75;;
39044;SDS011;52192;52.002;5.956;2022-12-07T10:08:13;0.98;;;0.68;;
39044;SDS011;52192;52.002;5.956;2022-12-07T10:10:42;6.38;;;2.03;;
39044;SDS011;52192;52.002;5.956;2022-12-07T10:13:10;5.20;;;1.10;;
39044;SDS011;52192;52.002;5.956;2022-12-07T10:15:48;3.05;;;0.85;;
39044;SDS011;52192;52.002;5.956;2022-12-07T10:18:20;1.67;;;0.98;;
39044;SDS011;52192;52.002;5.956;2022-12-07T10:20:59;1.13;;;0.70;;
39044;SDS011;52192;52.002;5.956;2022-12-07T10:24:13;1.75;;;0.95;;
39044;SDS011;52192;52.002;5.956;2022-12-07T10:31:42;2.90;;;0.95;;
39044;SDS011;52192;52.002;5.956;2022-12-07T10:36:49;0.63;;;0.50;;
39044;SDS011;52192;52.002;5.956;2022-12-07T10:39:20;5.95;;;1.38;;
39044;SDS011;52192;52.002;5.956;2022-12-07T10:44:27;4.95;;;0.90;;
39044;SDS011;52192;52.002;5.956;2022-12-07T10:47:00;0.60;;;0.60;;
39044;SDS011;52192;52.002;5.956;2022-12-07T10:55:17;9.70;;;0.80;;
39044;SDS011;52192;52.002;5.956;2022-12-07T11:04:03;1.37;;;0.77;;
39044;SDS011;52192;52.002;5.956;2022-12-07T11:06:57;1.45;;;0.95;;
39044;SDS011;52192;52.002;5.956;2022-12-07T11:12:27;3.60;;;0.95;;
39044;SDS011;52192;52.002;5.956;2022-12-07T11:17:54;0.80;;;0.70;;
39044;SDS011;52192;52.002;5.956;2022-12-07T11:26:38;0.90;;;0.70;;
39044;SDS011;52192;52.002;5.956;2022-12-07T11:32:14;1.15;;;0.70;;
39044;SDS011;52192;52.002;5.956;2022-12-07T11:35:11;1.65;;;0.90;;
39044;SDS011;52192;52.002;5.956;2022-12-07T11:37:41;0.65;;;0.60;;
39044;SDS011;52192;52.002;5.956;2022-12-07T11:43:21;0.65;;;0.50;;
39044;SDS011;52192;52.002;5.956;2022-12-07T11:45:58;2.75;;;1.05;;
39044;SDS011;52192;52.002;5.956;2022-12-07T11:51:17;0.90;;;0.65;;
39044;SDS011;52192;52.002;5.956;2022-12-07T11:53:52;1.42;;;0.77;;
39044;SDS011;52192;52.002;5.956;2022-12-07T11:56:27;1.00;;;0.55;;
39044;SDS011;52192;52.002;5.956;2022-12-07T11:58:55;3.15;;;0.50;;
39044;SDS011;52192;52.002;5.956;2022-12-07T12:06:34;1.25;;;1.15;;
39044;SDS011;52192;52.002;5.956;2022-12-07T12:14:23;1.45;;;0.65;;
39044;SDS011;52192;52.002;5.956;2022-12-07T12:22:34;0.77;;;0.73;;
39044;SDS011;52192;52.002;5.956;2022-12-07T12:25:07;1.50;;;0.70;;
39044;SDS011;52192;52.002;5.956;2022-12-07T12:27:44;0.85;;;0.57;;
39044;SDS011;52192;52.002;5.956;2022-12-07T12:32:51;0.40;;;0.40;;
39044;SDS011;52192;52.002;5.956;2022-12-07T12:37:57;3.40;;;0.70;;
39044;SDS011;52192;52.002;5.956;2022-12-07T12:40:46;0.75;;;0.57;;
39044;SDS011;52192;52.002;5.956;2022-12-07T12:43:58;0.80;;;0.50;;
39044;SDS011;52192;52.002;5.956;2022-12-07T12:54:14;2.78;;;1.05;;
39044;SDS011;52192;52.002;5.956;2022-12-07T12:59:32;1.38;;;0.68;;
39044;SDS011;52192;52.002;5.956;2022-12-07T13:21:41;1.17;;;0.60;;
39044;SDS011;52192;52.002;5.956;2022-12-07T13:28:49;0.40;;;0.40;;
39044;SDS011;52192;52.002;5.956;2022-12-07T13:31:40;2.20;;;0.90;;
39044;SDS011;52192;52.002;5.956;2022-12-07T13:36:59;10.60;;;0.77;;
39044;SDS011;52192;52.002;5.956;2022-12-07T13:39:27;1.33;;;0.55;;
39044;SDS011;52192;52.002;5.956;2022-12-07T13:41:54;1.02;;;0.82;;
39044;SDS011;52192;52.002;5.956;2022-12-07T13:44:24;3.50;;;0.93;;
39044;SDS011;52192;52.002;5.956;2022-12-07T13:49:36;0.98;;;0.40;;
39044;SDS011;52192;52.002;5.956;2022-12-07T13:52:13;2.55;;;0.60;;
39044;SDS011;52192;52.002;5.956;2022-12-07T13:54:45;2.70;;;1.38;;
39044;SDS011;52192;52.002;5.956;2022-12-07T13:57:21;2.72;;;0.60;;
39044;SDS011;52192;52.002;5.956;2022-12-07T13:59:49;0.57;;;0.32;;
39044;SDS011;52192;52.002;5.956;2022-12-07T14:02:22;2.50;;;0.95;;
39044;SDS011;52192;52.002;5.956;2022-12-07T14:05:06;0.82;;;0.55;;
39044;SDS011;52192;52.002;5.956;2022-12-07T14:07:55;2.45;;;0.82;;
39044;SDS011;52192;52.002;5.956;2022-12-07T14:12:51;2.28;;;0.70;;
39044;SDS011;52192;52.002;5.956;2022-12-07T14:15:21;0.40;;;0.30;;
39044;SDS011;52192;52.002;5.956;2022-12-07T14:17:49;0.73;;;0.30;;
39044;SDS011;52192;52.002;5.956;2022-12-07T14:20:35;0.38;;;0.38;;
39044;SDS011;52192;52.002;5.956;2022-12-07T14:23:03;1.08;;;0.45;;
39044;SDS011;52192;52.002;5.956;2022-12-07T14:25:48;0.20;;;0.20;;
39044;SDS011;52192;52.002;5.956;2022-12-07T14:30:54;0.40;;;0.40;;
39044;SDS011;52192;52.002;5.956;2022-12-07T14:33:20;0.10;;;0.10;;
39044;SDS011;52192;52.002;5.956;2022-12-07T14:35:47;2.80;;;0.38;;
39044;SDS011;52192;52.002;5.956;2022-12-07T14:38:12;0.30;;;0.30;;
39044;SDS011;52192;52.002;5.956;2022-12-07T14:40:38;0.73;;;0.50;;
39044;SDS011;52192;52.002;5.956;2022-12-07T14:43:05;0.20;;;0.20;;
39044;SDS011;52192;52.002;5.956;2022-12-07T14:45:36;0.43;;;0.30;;
39044;SDS011;52192;52.002;5.956;2022-12-07T14:48:02;0.15;;;0.15;;
39044;SDS011;52192;52.002;5.956;2022-12-07T14:50:28;1.70;;;0.40;;
39044;SDS011;52192;52.002;5.956;2022-12-07T14:52:55;0.40;;;0.30;;
39044;SDS011;52192;52.002;5.956;2022-12-07T14:55:25;0.35;;;0.30;;
39044;SDS011;52192;52.002;5.956;2022-12-07T14:57:53;1.80;;;0.57;;
39044;SDS011;52192;52.002;5.956;2022-12-07T15:00:20;0.95;;;0.40;;
39044;SDS011;52192;52.002;5.956;2022-12-07T15:02:47;1.08;;;0.65;;
39044;SDS011;52192;52.002;5.956;2022-12-07T15:05:14;2.08;;;0.50;;
39044;SDS011;52192;52.002;5.956;2022-12-07T15:07:40;0.32;;;0.32;;
39044;SDS011;52192;52.002;5.956;2022-12-07T15:10:06;0.40;;;0.30;;
39044;SDS011;52192;52.002;5.956;2022-12-07T15:12:38;0.50;;;0.50;;
39044;SDS011;52192;52.002;5.956;2022-12-07T15:15:04;1.33;;;0.60;;
39044;SDS011;52192;52.002;5.956;2022-12-07T15:17:30;0.50;;;0.47;;
39044;SDS011;52192;52.002;5.956;2022-12-07T15:19:56;0.30;;;0.30;;
39044;SDS011;52192;52.002;5.956;2022-12-07T15:22:21;0.32;;;0.32;;
39044;SDS011;52192;52.002;5.956;2022-12-07T15:24:47;1.27;;;0.45;;
39044;SDS011;52192;52.002;5.956;2022-12-07T15:27:13;0.20;;;0.20;;
39044;SDS011;52192;52.002;5.956;2022-12-07T15:29:38;0.38;;;0.38;;
39044;SDS011;52192;52.002;5.956;2022-12-07T15:32:04;2.75;;;0.40;;
39044;SDS011;52192;52.002;5.956;2022-12-07T15:34:30;0.22;;;0.22;;
39044;SDS011;52192;52.002;5.956;2022-12-07T15:36:56;0.73;;;0.40;;
39044;SDS011;52192;52.002;5.956;2022-12-07T15:39:22;2.80;;;0.45;;
39044;SDS011;52192;52.002;5.956;2022-12-07T15:41:48;0.43;;;0.43;;
39044;SDS011;52192;52.002;5.956;2022-12-07T15:44:14;0.20;;;0.20;;
39044;SDS011;52192;52.002;5.956;2022-12-07T15:46:59;1.55;;;0.52;;
39044;SDS011;52192;52.002;5.956;2022-12-07T15:49:25;0.60;;;0.57;;
39044;SDS011;52192;52.002;5.956;2022-12-07T15:51:52;2.05;;;0.75;;
39044;SDS011;52192;52.002;5.956;2022-12-07T15:54:25;0.30;;;0.28;;
39044;SDS011;52192;52.002;5.956;2022-12-07T15:56:52;0.22;;;0.22;;
39044;SDS011;52192;52.002;5.956;2022-12-07T15:59:19;2.00;;;0.70;;
39044;SDS011;52192;52.002;5.956;2022-12-07T16:01:44;0.40;;;0.40;;
39044;SDS011;52192;52.002;5.956;2022-12-07T16:04:10;0.30;;;0.30;;
39044;SDS011;52192;52.002;5.956;2022-12-07T16:06:36;0.50;;;0.40;;
39044;SDS011;52192;52.002;5.956;2022-12-07T16:09:02;0.68;;;0.38;;
39044;SDS011;52192;52.002;5.956;2022-12-07T16:11:28;0.90;;;0.45;;
39044;SDS011;52192;52.002;5.956;2022-12-07T16:13:54;0.32;;;0.32;;
39044;SDS011;52192;52.002;5.956;2022-12-07T16:16:20;11.00;;;1.15;;
39044;SDS011;52192;52.002;5.956;2022-12-07T16:18:47;0.70;;;0.68;;
39044;SDS011;52192;52.002;5.956;2022-12-07T16:21:14;1.63;;;0.77;;
39044;SDS011;52192;52.002;5.956;2022-12-07T16:23:41;1.73;;;1.02;;
39044;SDS011;52192;52.002;5.956;2022-12-07T16:26:11;3.58;;;0.98;;
39044;SDS011;52192;52.002;5.956;2022-12-07T16:28:38;0.75;;;0.65;;
39044;SDS011;52192;52.002;5.956;2022-12-07T16:31:08;5.10;;;1.15;;
39044;SDS011;52192;52.002;5.956;2022-12-07T16:33:37;1.23;;;1.13;;
39044;SDS011;52192;52.002;5.956;2022-12-07T16:36:04;2.17;;;1.30;;
39044;SDS011;52192;52.002;5.956;2022-12-07T16:38:31;6.38;;;1.15;;
39044;SDS011;52192;52.002;5.956;2022-12-07T16:40:57;1.35;;;0.70;;
39044;SDS011;52192;52.002;5.956;2022-12-07T16:43:23;1.27;;;1.02;;
39044;SDS011;52192;52.002;5.956;2022-12-07T16:45:48;0.60;;;0.60;;
39044;SDS011;52192;52.002;5.956;2022-12-07T16:48:15;0.82;;;0.70;;
39044;SDS011;52192;52.002;5.956;2022-12-07T16:50:41;1.48;;;1.15;;
39044;SDS011;52192;52.002;5.956;2022-12-07T16:53:08;1.30;;;1.00;;
39044;SDS011;52192;52.002;5.956;2022-12-07T16:55:38;0.90;;;0.80;;
39044;SDS011;52192;52.002;5.956;2022-12-07T16:58:08;0.90;;;0.50;;
39044;SDS011;52192;52.002;5.956;2022-12-07T17:00:35;0.82;;;0.40;;
39044;SDS011;52192;52.002;5.956;2022-12-07T17:03:01;1.35;;;0.98;;
39044;SDS011;52192;52.002;5.956;2022-12-07T17:05:28;1.25;;;0.60;;
39044;SDS011;52192;52.002;5.956;2022-12-07T17:07:55;0.40;;;0.40;;
39044;SDS011;52192;52.002;5.956;2022-12-07T17:10:21;1.73;;;0.73;;
39044;SDS011;52192;52.002;5.956;2022-12-07T17:12:48;1.50;;;1.13;;
39044;SDS011;52192;52.002;5.956;2022-12-07T17:15:14;1.00;;;0.63;;
39044;SDS011;52192;52.002;5.956;2022-12-07T17:17:57;0.95;;;0.65;;
39044;SDS011;52192;52.002;5.956;2022-12-07T17:20:24;0.65;;;0.52;;
39044;SDS011;52192;52.002;5.956;2022-12-07T17:22:51;2.50;;;0.40;;